Malatya Erhaç Airport
LTAT : now visible

Airfield :











YOU CAN JOIN US ON...

 
LOGIN :

Register | Disclaimer

   EN    FR    IT 

 









Legend :    VFR   Marginal VFR   IFR   Intensive IFR   Very Intensive IFR
Visi :
Ceiling :
>= 8 km
>= 3000ft
5 to 8 km
1000 to 3000 ft
1500m to 5 km
500 to 1000 ft
800 to 1500m
200 to 500 ft
< 800m
< 200 ft
Symbols :   Thunderstorms  Fog  Heavy snow  Heavy precipitations  Wind > 20 kt






- Airport Elevation : 2828 ft
- IATA code : MLX


LTAT - Malatya Erhaç

CURRENT METAR :
  • 151050Z 12010KT CAVOK 34/02 Q1012 NOSIG

EXPIRED METARs :
  • 151020Z 06006KT 340V130 CAVOK 33/03 Q1012 NOSIG RMK RWY03 15006KT 080V230
  • 150950Z 19008KT 130V280 CAVOK 33/02 Q1013 NOSIG RMK RWY03 06006KT 010V110
  • 150920Z 21006KT 130V300 CAVOK 33/03 Q1013 NOSIG RMK RWY03 14005KT 100V180
  • 150850Z VRB06KT CAVOK 32/02 Q1013 NOSIG RMK RWY03 12005KT 050V180
  • 150820Z 10008KT 060V140 CAVOK 31/01 Q1013 NOSIG RMK RWY03 12008KT 060V180

TAF TAF LTAT
Valid from the 15 at 06:00 until the 16 at 06:00 UTC


150440Z 1506/1606 VRB02KT CAVOK
PROB40 1511/1515 09012G22KT
PROB40
TEMPO 1517/1521 32012G22KT



MET'MAP, your aeronautical weather chart ! - Copyright ORBIFLY December 2007 - Disclaimer

ORBIFLY MET'MAP TEAM :

Programming & Development : Alexandra Zaïnal
Concept & original design : Baudouin d'Aumeries
Assistance for programming : Marc-Olivier Méhu
Technical & hardware support : Manuel Goepfert

Contact : metmap@orbifly.com




SOURCES & CREDITS :

   NOAA       Earth
Advisory